Mexico Beach, Florida
Current Conditions -  °F | °C
As of 12:58 PM on Thursday 23 Oct 2014 (Local Time) from KPAM Reporting Station
Clear Clear  
Wind Chill: 72°   Ceiling: Unl
Heat Index: 72°   Visibility: 10mi
Dew Point: 48°   Wind: 5mph
Humidity: 43%   Direction: NA
Pressure: 30.04"   Gusts: NA
Location:  29.95°N, 85.42°W
Report Text: KPAM 231758Z AUTO VRB04KT 10SM CLR 22/09 A3004 RMK AO2 SLP176 T02230091 10227 20116 58018 $
Loading
Personal Weather Stations






























Interactive Weather Map
Tropical Storm Tracking
New forecast layout! Learn more

10-Day Weather Forecast

Advertisements
Track Severe Weather on mobile